Terminal Aerodrome Forecast
Issued by NWS

Home | Current Version | Previous Version | Graphics & Text | Print | Product List | Glossary On
Versions: 1 2 3 4 5 6 7 8 9 10 11 12 13 14 15
000
FTUS43 KGRB 150500
TAFAUW
TAF
KAUW 150530Z 1506/1606 31005KT P6SM FEW050 BKN100
     FM151000 30005KT P6SM VCSH BKN050 BKN090
      TEMPO 1510/1514 5SM -SHRA BKN040
     FM151700 30006KT P6SM SCT040 BKN090
     FM152100 31007KT P6SM SCT070
     FM152300 31005KT P6SM SKC=

USA.gov is the U.S. government's official web portal to all federal, state and local government web resources and services.